Timeline UpdatesTrip UpdatesNews PostsPvt PostsTravel TipsAdmin PostsConv PostsFollowed PostsChat RequestsBlog PostsPNR Posts

Disclaimer
Search
 
 
Sat Jul 26, 2014 06:36:23 ISTHomeTrainsΣChainsAtlasPNRForumGalleryNewsFAQTripsMembersLoginFeedback
No Recent News for this Train
Other Trains in the News **new
Latest...
.
Thu Apr 05, 2012 (12:27AM)
⇐ Return Journey: Train# 11024

11023/Sahyadri Express

Oct 13 2013 (6:38PM)
Change Departure Station:
Change Arrival Station:
Post a Train Travel TipPost a Train Travel Tip **new
Post a Comment/Question/Picture/VideoPost a Comment/Question/Picture/Video
Pantry/Catering
✕ NO Pantry Car
✓ Catering Avbl
RSA - Rake Sharing
11039/11040 Maharashtra Express
Rake/Coach Composition
Loco,SLR, GEN, GEN, A1, B1, S8, S7, S6, S5, S4, S3, S2, S1, GEN, SLR;;Entry# 227983 Author: jayateerth
Loco
CSTM-PUNE: KYN WCAM-2P/3 PUNE-KOP: PUNE WDM-3A / 3D / WDG-3A
News    PNR    Forum    Time-Table    Availability    Fare Chart    Map    Arr/Dep History    Trips    Gallery    ΣChains    X/O    Timeline    
Travel Time: 4h 5m    10 halts    Distance: 192 km    Avg Speed: 47 km/hr
Type: Mail/Express
Zone: CR/Central
Departs @ 17:50
Platform# 9
SMTWTFS
Mumbai CST/CSTM 
Arrives @ 21:55
Platform# 2
SMTWTFS
Pune Junction/PUNE 

10 halts. 59 intermediate Stations between Mumbai CST and Pune Junction

Hide intermediate Stations  Show Old Time-Table

#CodeStation NameX/OArrivesAvgDepartsAvgHaltPFDay#KmSpeedElevZoneAddress
1CSTM»Mumbai CST (18)»  -17:50-910.04010mCRMumbai 400001, Maharashtra
1.1MSDMumbai Masjid (4)  17:51-17:51-  10.9 4010mCRMumbai, Maharashtra
1.2SNRDMumbai Sandhurst Road (4)  17:53-17:53-  12.0 409mCRMumbai, Maharashtra
1.3BYByculla (4)  17:56-17:56-  13.9 409mCRMumbai 400027, Maharashtra
1.4CHGMumbai Chinchpokli (2)  17:58-17:58-  15.0 406mCRMumbai, Maharashtra
1.5CRDMumbai Currey Road (2)  17:59-17:59-  15.8 405mCRMumbai, Maharashtra
1.6PRMumbai Parel (4)  18:01-18:01-  17.6 406mCRMumbai, Maharashtra
2DRMumbai Dadar Central (8)  18:03-18:04-1m418.6627mCRMumbai 400014, Maharashtra
2.1MTNMumbai Matunga (4)  18:05-18:05-  110.0 627mCRMumbai, Maharashtra
2.2SINMumbai Sion (4)  18:08-18:08-  112.7 627mCRMumbai, Maharashtra
2.3CLAKurla Junction (8)  18:10-18:10-  115.3 628mCRMumbai, Maharashtra
2.4LTTMumbai Lokmanya Tilak Terminus (5)  18:12-18:12-  116.4 627mCRMumbai, Maharashtra
2.5VVHVidyavihar (2)X  18:13-18:13-  117.7 628mCRMumbai, Maharashtra
2.6GCGhatkopar (4)  18:14-18:14-  119.1 6211mCRMumbai 400086, Maharashtra
2.7VKVikhroli (4)X  18:18-18:18-  122.7 6210mCRMumbai, Maharashtra
2.8KJMGKanjur Marg (2)  18:19-18:19-  124.6 625mCRMumbai, Maharashtra
2.9BNDBhandup (4)  18:21-18:21-  126.5 627mCRMumbai 400078, Maharashtra
2.10NHUNahur (2)  18:23-18:23-  128.1 625mCRMumbai, Maharashtra
2.11MLNDMulund (4)  18:25-18:25-  130.3 6212mCRMumbai, Maharashtra
2.12TNAThane (10)  18:27-18:27-  132.9 6210mCRThane, Maharashtra
2.13KLVAKalva (2)  18:30-18:30-  135.4 625mCRKalva, Maharashtra
2.14MBQMumbra (2)X  18:34-18:34-  139.9 628mCRMumbra, Maharashtra
2.15DIVADiva Junction (6)  18:37-18:37-  142.5 623mCRJn Pt TNA/PNVL/KYN/BSR Diva, Maharashtra
2.16KOPRKopar (4)  18:41-18:41-  146.8 620mCRKopar, Maharashtra
2.17DIDombivli (5)  18:42-18:42-  148.1 6211mCRDombivli, Maharashtra
2.18THKThakurli (2)X  18:44-18:44-  149.5 6214mCRThakurli, Maharashtra
3KYNKalyan Junction (8)  18:47-18:50-3m4153.15910mCRKalyan 421301, Maharashtra
3.1VLDIVithalwadi (2)  18:52-18:52-  155.5 5913mCRVitthalwadi, Maharashtra
3.2ULNRUlhasnagar (2)  18:54-18:54-  157.3 5914mCRUlhasnagar Camp No.3, Maharashtra
3.3ABHAmbernath (3)X  18:57-18:57-  159.8 5923mCRMaharashtra 421502, Maharashtra
3.4BUDBadlapur (3)X  19:05-19:05-  167.4 5918mCRBadlapur-421 503, Maharashtra
3.5VGIVangani (2)  19:16-19:16-  178.2 5942mCRVangani, Maharashtra
3.6SHLUShelu (2)  19:20-19:20-  182.2 5940mCRShelu, Maharashtra
3.7NRLNeral Junction (2)X  19:24-19:24-  186.3 5942mCRNeral-410101 Dist. Raigad, Maharashtra
3.8BVSBhivpuri Road (2)  19:31-19:31-  193.0 5950mCRBhivpuri Road, Maharashtra
4KJTKarjat Junction (4)  19:38-19:40-2m1199.94457mCRKarjat, Maharashtra
4.1PDIPalasdhari (4)X  19:44-19:44-  1102.9 4467mCRDist Raigad, Maharashtra
4.2TKWThakurvadi  19:57-19:57-  1112.4 44281mCRKhandala, Maharashtra
4.3NNCNNagnath Cabin (1)  19:57-19:57-  1112.7 44289mCRDolavali Khopoli (Chinchavali Marge), Maharashtra
4.4NAGCNagargali  20:02-20:02-  1115.8 44354mCRKhopoli, Maharashtra
4.5MHLCMonkey Hill (2)X  20:07-20:07-  1119.6 44414mCRKhandala, Maharashtra
5KADKhandala (3)  20:14-20:16-2m11124.928545mCRKhandala 410301, Maharashtra
6LNLLonavala (3)  20:24-20:25-1m11128.668623mCRLonavala 410401, Maharashtra
6.1MVLMalavli (2)X  20:31-20:31-  1135.7 68616mCRMalavli 410405, Maharashtra
6.2KMSTKamshet (2)X  20:39-20:39-  1144.5 68607mCRDist. Pune 410405, Maharashtra
6.3KNHEKanhe (2)  20:43-20:43-  1149.0 68626mCRKanhe, Maharashtra
6.4VDNVadgaon (2)  20:47-20:47-  1154.1 68623mCRVadgaon, Maharashtra
7TGNTalegaon (2)X  20:51-20:52-1m11158.148619mCRTalegaon Dabhade 410501, Maharashtra
7.1GRWDGhorawadi (2)  20:56-20:56-  1161.2 48596mCRGhorawadi, Maharashtra
7.2SLRWShelarwadi (2)  20:59-20:59-  1163.9 48594mCRShelarwadi Dist. Pune, Maharashtra
7.3BGWIBegdaewadi  21:00-21:00-  1164.2 48594mCRTalegaon, Maharashtra
7.4BGWBegdewadi (2)  21:00-21:00-  1164.3 48594mCRBegdewadi, Maharashtra
8DEHRDehu Road (4)X  21:04-21:05-1m21167.852611mCRDehu 412101, Maharashtra
8.1AKRDAkurdi (2)  21:11-21:11-  1172.7 52583mCRPune 411035, Maharashtra
8.2CCHChinchwad (4)  21:14-21:14-  1175.9 52573mCRPune 411033, Maharashtra
9PMPPimpri (2)X  21:17-21:18-1m11178.154570mCRPune 411018, Maharashtra
9.1KSWDKasarwadi (2)  21:21-21:21-  1180.7 54558mCRPune 411034, Maharashtra
9.2DAPDDapodi (2)  21:25-21:25-  1184.1 54558mCRPune 411012, Maharashtra
10KKKhadki (3)  21:27-21:28-1m11186.236562mCRPune 411003, Maharashtra
11SVJRShivajinagar (2)  21:34-21:35-1m11189.87549mCRPune 411005, Maharashtra
12PUNE•Pune Junction (6)•21:55-22:05-10m21192.255556mCRPune 411001, Maharashtra
12.1GPRGhorpuri (2)  22:07-22:07-  1194.5 55558mCRPune, Maharashtra
12.2GITGhorpuri TranshX  22:08-22:08-  1194.9 55557mCRPune, Maharashtra
12.3SSVSasvad Road (1)  22:18-22:18-  1203.9 55587mCRPune 412308, Maharashtra
12.4FSGPhursungi (1)  22:23-22:23-  1208.9 55582mCRDist Pune 412308, Maharashtra
12.5ALNAlandi  22:30-22:30-  1215.6 55583mCRRamdara Rd, Maharashtra
12.6SHIVShindawane (1)  22:39-22:39-  1224.0 55650mCRPune 412202, Maharashtra
12.7ABLEAmbale  22:50-22:50-  1233.6 55729mCRMalshiras Rd, Maharashtra
12.8RJWRajevadi  22:55-22:55-  1238.2 55727mCRMalshiras Rd, Maharashtra
13JJRJejuri (1)  23:08-23:10-2m11250.437697mCRDist. Pune 412303, Maharashtra
13.1DNJDaundaj (1)  23:23-23:23-  1258.2 37692mCRIndraprastha Rd, Maharashtra
13.2WLHValha (1)  23:36-23:36-  1266.6 37623mCRValha, Maharashtra
14NIRANira (1)  23:53-23:55-2m11277.057553mCRDist. Pune 412102, Maharashtra
15LNNLonandX  00:03-00:05-2m12284.631594mCRJn Point Daund /Miraj /Pune, Maharashtra
15.1SLPSalpa  00:23-00:23-  2293.7 31667mCRSH 61, Maharashtra
15.2AKIAdarki (1)X  00:38-00:38-  2301.8 31731mCRSatara Dist., Maharashtra
16WTRWatharX  00:58-01:00-2m12311.942799mCRSatara, Maharashtra
16.1PLVPalsiX  01:13-01:13-  2321.4 42751mCRWathar-Koregaon Rd, Maharashtra
16.2JSVJarandeshwar  01:26-01:26-  2330.3 42678mCRSH 61, Maharashtra
17STRSatara (3)  01:37-01:40-3m12338.049637mCRSatara, Maharashtra
18KRGKoregaonX  01:53-01:55-2m12348.750658mCRKoregaon, Maharashtra
18.1RMPRahimatpur  02:07-02:07-  2359.0 50626mCRSatara, Maharashtra
18.2TAZTargaonX  02:20-02:20-  2370.0 50617mCRSatara, Maharashtra
18.3MSRMasur  02:36-02:36-  2382.8 50610mCRSatara, Maharashtra
18.4SIWShirravde  02:42-02:42-  2388.0 50594mCRMasur Rd, Maharashtra
19KRDKarad (3)  02:52-02:55-3m12396.654597mCRDist- Satara., Maharashtra
19.1SNEShenoli  03:10-03:10-  2409.8 54587mCRShenoli Station, Maharashtra
19.2BVNRBhavani Nagar  03:19-03:19-  2417.8 54578mCRTasgaon Rd, Maharashtra
19.3TKRTakari  03:26-03:26-  2424.0 54558mCRSangli, Maharashtra
20KOVKirloskarvadi  03:34-03:35-1m12431.675570mCRSangli, Maharashtra
20.1ANQAmnapur  03:39-03:39-  2436.2 75556mCRSangli, Maharashtra
21BVQBhilavdiX  03:46-03:48-2m12445.560570mCRSangli, Maharashtra
21.1NDENandre  03:55-03:55-  2452.2 60560mCRSangli, Maharashtra
21.2MDVRMadhavnagar  04:04-04:04-  2461.1 60550mCRSangli, Maharashtra
22SLISangli (3)  04:07-04:10-3m22464.515559mCRSangli, Maharashtra
22.1VRBVishrambag  04:18-04:18-  2466.4 150mCRSangli, Maharashtra
23MRJMiraj Junction (6)  04:40-04:43-3m32471.855554mCRMiraj 416410, Maharashtra
24JSPJayasingpur  04:56-04:57-1m12483.751550mCRJaysingpur, Maharashtra
24.1NMGTNimshirgaon Tamdalge  05:06-05:06-  2491.1 51593mCRMiraj Rd, Maharashtra
25HTKHatkanagale (2)X  05:14-05:15-1m22498.250591mCRDist. Kolhapur 416115, Maharashtra
26RKDRukadi (1)  05:24-05:25-1m12505.744544mCRKolhapur, Maharashtra
27VVValivade  05:34-05:35-1m12512.313554mCRValivade, Maharashtra
27.1GRMTGur Market  05:49-05:49-  2515.3 13550mCRKolhapur, Maharashtra
28KOPKolhapur CSMT (3)  06:05--22518.9-563mCRKolhapur 416001, Maharashtra
Scroll to Top
Scroll to Bottom